Time;durP1;ratioP1;P1;durP2;ratioP2;P2;SDS_P1;SDS_P2;PMS_P1;PMS_P2;Temp;Humidity;BMP_temperature;BMP_pressure;BME280_temperature;BME280_humidity;BME280_pressure;Samples;Min_cycle;Max_cycle;Signal;HPM_P1;HPM_P2
2023/07/04 00:01:24;;;;;;;7.47;3.08;;;16.80;66.40;;;;;;5083586;28;20491;-66
2023/07/04 00:03:54;;;;;;;5.45;2.88;;;16.90;66.20;;;;;;5086641;28;20414;-66
2023/07/04 00:06:22;;;;;;;5.03;2.83;;;16.90;66.40;;;;;;5074873;28;20503;-66
2023/07/04 00:08:51;;;;;;;6.13;2.85;;;16.90;66.10;;;;;;5080410;28;20425;-67
2023/07/04 00:11:19;;;;;;;8.00;3.10;;;16.90;66.10;;;;;;5087067;28;20734;-66
2023/07/04 00:13:46;;;;;;;6.43;2.72;;;17.00;66.20;;;;;;5068215;28;20917;-65
2023/07/04 00:16:14;;;;;;;5.43;2.50;;;17.00;66.10;;;;;;5084210;28;20454;-66
2023/07/04 00:18:41;;;;;;;8.90;2.95;;;17.00;66.20;;;;;;5085231;28;20503;-66
2023/07/04 00:21:14;;;;;;;8.05;2.72;;;16.90;66.30;;;;;;5083402;28;20483;-66
2023/07/04 00:23:45;;;;;;;6.53;2.93;;;16.90;66.60;;;;;;5078522;28;20433;-67
2023/07/04 00:26:14;;;;;;;8.77;2.97;;;16.90;66.80;;;;;;5077635;28;20896;-67
2023/07/04 00:28:42;;;;;;;6.43;2.90;;;16.90;67.20;;;;;;5081171;28;20432;-65
2023/07/04 00:31:14;;;;;;;5.40;2.63;;;16.80;67.50;;;;;;5085914;28;20429;-66
2023/07/04 00:33:41;;;;;;;4.45;2.35;;;16.80;67.50;;;;;;5090390;28;20437;-65
2023/07/04 00:36:11;;;;;;;5.32;2.50;;;16.80;67.60;;;;;;5088027;28;20429;-68
2023/07/04 00:38:39;;;;;;;7.43;3.33;;;16.80;67.90;;;;;;5082289;28;20803;-68
2023/07/04 00:41:09;;;;;;;6.53;2.50;;;16.80;68.30;;;;;;5084248;28;20818;-68
2023/07/04 00:43:46;;;;;;;7.15;3.25;;;16.70;68.60;;;;;;5077564;28;20801;-67
2023/07/04 00:46:15;;;;;;;5.78;3.40;;;16.60;68.90;;;;;;5086271;28;20925;-67
2023/07/04 00:48:44;;;;;;;6.30;3.00;;;16.60;69.80;;;;;;5082110;28;20471;-67
2023/07/04 00:51:21;;;;;;;5.65;3.00;;;16.60;69.70;;;;;;5086428;28;20816;-68
2023/07/04 00:53:50;;;;;;;5.20;2.70;;;16.50;69.90;;;;;;5074095;28;20491;-67
2023/07/04 00:56:17;;;;;;;5.80;2.70;;;16.50;70.10;;;;;;5082918;28;20814;-68
2023/07/04 00:58:44;;;;;;;8.00;3.20;;;16.40;70.40;;;;;;5086070;28;20502;-66
2023/07/04 01:01:10;;;;;;;4.37;2.70;;;16.40;70.60;;;;;;5085739;28;20493;-65
2023/07/04 01:03:37;;;;;;;7.30;2.95;;;16.40;70.70;;;;;;5080027;28;20435;-68
2023/07/04 01:06:13;;;;;;;6.10;3.30;;;16.40;70.90;;;;;;5090488;28;20464;-67
2023/07/04 01:08:43;;;;;;;5.47;2.75;;;16.30;71.10;;;;;;5087317;28;20564;-65
2023/07/04 01:11:16;;;;;;;7.45;3.20;;;16.30;71.40;;;;;;5090078;28;20432;-66
2023/07/04 01:13:44;;;;;;;4.80;3.03;;;16.30;71.50;;;;;;5087082;28;20503;-68
2023/07/04 01:16:13;;;;;;;6.45;2.80;;;16.20;71.80;;;;;;5084957;28;20488;-68
2023/07/04 01:18:42;;;;;;;6.95;2.80;;;16.20;72.10;;;;;;5085432;28;20923;-68
2023/07/04 01:21:10;;;;;;;5.75;2.70;;;16.10;72.40;;;;;;5089686;28;20864;-66
2023/07/04 01:23:46;;;;;;;5.60;2.90;;;16.10;72.80;;;;;;5080586;28;20434;-66
2023/07/04 01:26:23;;;;;;;8.45;3.10;;;16.10;72.90;;;;;;5084265;28;20765;-67
2023/07/04 01:28:53;;;;;;;6.95;2.97;;;16.10;73.10;;;;;;5080386;28;20515;-67
2023/07/04 01:31:20;;;;;;;5.75;3.03;;;16.10;73.50;;;;;;5077408;28;20429;-67
2023/07/04 01:33:48;;;;;;;9.68;3.33;;;16.00;73.70;;;;;;5081239;28;20478;-68
2023/07/04 01:36:16;;;;;;;5.93;3.40;;;16.00;74.00;;;;;;5077752;28;20450;-68
2023/07/04 01:38:43;;;;;;;8.35;2.97;;;16.00;74.00;;;;;;5086708;28;20410;-66
2023/07/04 01:41:10;;;;;;;5.35;2.85;;;16.00;74.10;;;;;;5083482;28;20868;-67
2023/07/04 01:43:39;;;;;;;5.70;2.75;;;15.90;74.50;;;;;;5084441;28;20424;-67
2023/07/04 01:46:05;;;;;;;7.70;3.10;;;15.90;74.60;;;;;;5081787;28;20880;-67
2023/07/04 01:48:32;;;;;;;4.88;2.60;;;15.90;74.70;;;;;;5087295;28;20433;-66
2023/07/04 01:50:59;;;;;;;7.00;3.20;;;15.90;75.10;;;;;;5087605;28;20559;-68
2023/07/04 01:53:26;;;;;;;7.97;3.25;;;15.80;75.20;;;;;;5087256;28;20880;-67
2023/07/04 01:55:52;;;;;;;7.03;3.10;;;15.80;75.40;;;;;;5079907;28;20911;-67
2023/07/04 01:58:19;;;;;;;5.55;2.83;;;15.80;75.80;;;;;;5089060;28;20413;-67
2023/07/04 02:00:47;;;;;;;6.72;3.15;;;15.70;76.00;;;;;;5080448;28;20522;-67
2023/07/04 02:03:14;;;;;;;7.88;3.47;;;15.70;76.20;;;;;;5085783;28;20521;-67
2023/07/04 02:05:41;;;;;;;5.47;3.08;;;15.60;76.70;;;;;;5085064;28;20535;-67
2023/07/04 02:08:08;;;;;;;7.55;3.00;;;15.60;76.90;;;;;;5088600;28;20421;-68
2023/07/04 02:10:35;;;;;;;7.03;2.90;;;15.60;77.50;;;;;;5085806;28;20428;-67
2023/07/04 02:13:02;;;;;;;5.90;3.20;;;15.60;77.30;;;;;;5083150;28;20494;-67
2023/07/04 02:15:29;;;;;;;6.47;2.90;;;15.50;77.50;;;;;;5084158;28;20461;-67
2023/07/04 02:17:58;;;;;;;5.80;2.70;;;15.50;77.70;;;;;;5089016;28;20483;-64
2023/07/04 02:20:24;;;;;;;7.40;3.33;;;15.40;78.00;;;;;;5088068;28;20429;-65
2023/07/04 02:22:51;;;;;;;7.82;3.30;;;15.40;78.20;;;;;;5082266;28;20828;-65
2023/07/04 02:25:18;;;;;;;4.40;2.78;;;15.40;78.60;;;;;;5084472;28;20441;-67
2023/07/04 02:27:44;;;;;;;7.50;3.17;;;15.30;78.90;;;;;;5086751;28;20410;-66
2023/07/04 02:30:12;;;;;;;7.30;3.08;;;15.40;79.60;;;;;;5068282;28;20423;-65
2023/07/04 02:32:39;;;;;;;5.57;3.20;;;15.30;79.50;;;;;;5086185;28;20898;-66
2023/07/04 02:35:08;;;;;;;7.55;3.30;;;15.30;80.10;;;;;;5085092;28;20442;-65
2023/07/04 02:37:34;;;;;;;9.70;3.30;;;15.20;80.40;;;;;;5085061;28;20414;-65
2023/07/04 02:40:02;;;;;;;6.60;3.10;;;15.20;80.70;;;;;;5071834;28;20422;-65
2023/07/04 02:42:28;;;;;;;6.72;3.22;;;15.20;81.00;;;;;;5088327;28;20807;-65
2023/07/04 02:44:55;;;;;;;7.03;3.30;;;15.10;81.50;;;;;;5084341;28;20437;-66
2023/07/04 02:47:26;;;;;;;9.63;3.27;;;15.10;82.00;;;;;;5086563;28;20452;-66
2023/07/04 02:49:52;;;;;;;8.40;2.90;;;15.10;82.00;;;;;;5086490;28;20433;-66
2023/07/04 02:52:21;;;;;;;7.47;3.50;;;15.10;82.60;;;;;;5088318;28;20418;-66
2023/07/04 02:54:48;;;;;;;6.10;3.20;;;15.00;82.80;;;;;;5084431;28;20927;-66
2023/07/04 02:57:16;;;;;;;7.82;3.42;;;15.00;82.90;;;;;;5084490;28;20437;-66
2023/07/04 02:59:43;;;;;;;7.32;2.92;;;15.00;83.40;;;;;;5073279;28;20420;-66
2023/07/04 03:02:10;;;;;;;6.85;3.00;;;15.00;83.60;;;;;;5082902;28;20426;-65
2023/07/04 03:04:37;;;;;;;7.22;3.30;;;15.00;84.20;;;;;;5080794;28;20435;-65
2023/07/04 03:07:04;;;;;;;9.85;3.55;;;14.90;84.40;;;;;;5082934;28;20434;-65
2023/07/04 03:09:32;;;;;;;7.40;3.20;;;14.90;84.60;;;;;;5077199;28;20908;-65
2023/07/04 03:11:59;;;;;;;6.85;3.55;;;14.90;84.70;;;;;;5074725;28;20529;-65
2023/07/04 03:14:26;;;;;;;8.88;3.30;;;14.90;85.10;;;;;;5086677;28;20418;-65
2023/07/04 03:16:53;;;;;;;9.65;3.80;;;14.90;85.40;;;;;;5084130;28;20533;-66
2023/07/04 03:19:20;;;;;;;7.97;3.20;;;14.90;85.70;;;;;;5083182;28;20436;-66
2023/07/04 03:21:47;;;;;;;7.38;3.60;;;14.90;85.70;;;;;;5079347;28;20520;-66
2023/07/04 03:24:14;;;;;;;8.80;3.60;;;14.80;86.00;;;;;;5080765;28;20437;-66
2023/07/04 03:26:45;;;;;;;8.45;3.53;;;14.80;86.20;;;;;;5086805;28;20927;-66
2023/07/04 03:29:11;;;;;;;5.50;3.30;;;14.80;86.30;;;;;;5086067;28;20429;-66
2023/07/04 03:31:38;;;;;;;9.48;3.80;;;14.80;86.40;;;;;;5076194;28;20447;-65
2023/07/04 03:34:05;;;;;;;8.55;3.20;;;14.80;86.60;;;;;;5087195;28;20841;-67
2023/07/04 03:36:31;;;;;;;9.05;3.00;;;14.80;87.00;;;;;;5081134;28;20430;-66
2023/07/04 03:38:58;;;;;;;10.13;3.55;;;14.80;87.00;;;;;;5077038;28;20462;-66
2023/07/04 03:41:25;;;;;;;7.53;3.38;;;14.80;87.10;;;;;;5086934;28;20908;-66
2023/07/04 03:43:53;;;;;;;7.10;3.15;;;14.80;87.20;;;;;;5086675;28;20521;-66
2023/07/04 03:46:20;;;;;;;6.30;3.40;;;14.80;87.30;;;;;;5073610;28;20460;-66
2023/07/04 03:48:46;;;;;;;8.07;3.33;;;14.70;87.40;;;;;;5086132;28;20440;-66
2023/07/04 03:51:13;;;;;;;7.80;3.30;;;14.80;87.60;;;;;;5083600;28;20919;-66
2023/07/04 03:53:40;;;;;;;7.27;3.40;;;14.70;87.50;;;;;;5083449;28;20525;-66
2023/07/04 03:56:07;;;;;;;5.10;2.80;;;14.70;87.70;;;;;;5085839;28;20440;-66
2023/07/04 03:58:34;;;;;;;8.90;3.70;;;14.70;87.80;;;;;;5086029;28;20425;-65
2023/07/04 04:01:04;;;;;;;7.40;3.63;;;14.70;88.20;;;;;;5079008;28;20425;-66
2023/07/04 04:03:36;;;;;;;8.80;3.60;;;14.70;88.60;;;;;;5086585;28;20470;-66
2023/07/04 04:06:04;;;;;;;8.05;3.25;;;14.70;88.70;;;;;;5082791;28;20472;-65
2023/07/04 04:08:30;;;;;;;8.38;3.88;;;14.70;88.80;;;;;;5081518;28;20427;-66
2023/07/04 04:10:57;;;;;;;7.72;3.45;;;14.70;88.90;;;;;;5090157;28;20437;-65
2023/07/04 04:13:24;;;;;;;7.57;3.40;;;14.70;89.00;;;;;;5088907;28;20881;-66
2023/07/04 04:15:51;;;;;;;8.65;3.85;;;14.70;89.40;;;;;;5086970;28;20449;-66
2023/07/04 04:18:20;;;;;;;7.85;3.53;;;14.70;89.60;;;;;;5084366;28;20908;-66
2023/07/04 04:20:46;;;;;;;7.20;3.30;;;14.70;89.70;;;;;;5082411;28;20502;-66
2023/07/04 04:23:15;;;;;;;8.30;3.90;;;14.70;89.80;;;;;;5086771;28;20431;-65
2023/07/04 04:25:41;;;;;;;9.52;3.60;;;14.70;90.00;;;;;;5086776;28;20429;-65
2023/07/04 04:28:09;;;;;;;8.23;3.85;;;14.70;90.10;;;;;;5075330;28;20423;-65
2023/07/04 04:30:37;;;;;;;9.30;3.90;;;14.70;90.20;;;;;;5079052;28;20893;-65
2023/07/04 04:33:04;;;;;;;7.68;3.92;;;14.70;90.50;;;;;;5081808;28;20425;-65
2023/07/04 04:35:33;;;;;;;8.18;3.30;;;14.70;90.20;;;;;;5071467;28;20427;-65
2023/07/04 04:38:00;;;;;;;7.90;3.70;;;14.70;90.30;;;;;;5088577;28;20433;-66
2023/07/04 04:40:29;;;;;;;9.65;3.70;;;14.70;90.40;;;;;;5085412;28;20428;-65
2023/07/04 04:42:56;;;;;;;6.95;3.20;;;14.70;90.40;;;;;;5070250;28;20447;-65
2023/07/04 04:45:24;;;;;;;8.98;3.70;;;14.70;90.30;;;;;;5070780;28;20486;-68
2023/07/04 04:47:53;;;;;;;10.37;5.13;;;14.70;90.50;;;;;;5079434;28;20425;-65
2023/07/04 04:50:21;;;;;;;8.57;3.40;;;14.70;90.60;;;;;;5089127;28;20930;-65
2023/07/04 04:52:49;;;;;;;10.13;3.58;;;14.70;90.50;;;;;;5108094;22;20432;-75
2023/07/04 04:55:16;;;;;;;8.02;3.50;;;14.80;90.60;;;;;;5109646;28;20434;-74
2023/07/04 04:57:43;;;;;;;8.80;3.63;;;14.80;90.40;;;;;;5108914;28;20432;-75
2023/07/04 05:00:12;;;;;;;9.00;3.80;;;14.80;90.40;;;;;;5104043;28;20615;-74
2023/07/04 05:02:39;;;;;;;8.32;3.35;;;14.80;90.60;;;;;;5098411;28;20461;-74
2023/07/04 05:05:07;;;;;;;9.40;3.50;;;14.90;90.90;;;;;;5081087;28;20815;-76
2023/07/04 05:07:34;;;;;;;8.68;4.20;;;14.90;90.50;;;;;;5086847;28;20509;-77
2023/07/04 05:10:03;;;;;;;10.48;3.72;;;14.90;90.50;;;;;;5087441;28;20434;-76
2023/07/04 05:12:30;;;;;;;8.85;3.70;;;14.90;90.40;;;;;;5089235;28;20467;-74
2023/07/04 05:14:56;;;;;;;9.05;3.72;;;15.00;90.40;;;;;;5090319;28;20532;-73
2023/07/04 05:17:24;;;;;;;7.78;3.58;;;15.00;90.30;;;;;;5081003;28;20422;-73
2023/07/04 05:19:51;;;;;;;6.20;3.50;;;15.00;90.40;;;;;;5081073;28;20410;-74
2023/07/04 05:22:19;;;;;;;8.80;3.40;;;15.00;90.30;;;;;;5085836;28;20426;-74
2023/07/04 05:24:45;;;;;;;11.48;4.20;;;15.10;90.20;;;;;;5084732;28;20543;-75
2023/07/04 05:27:15;;;;;;;11.00;3.90;;;15.10;90.10;;;;;;5085379;28;20433;-74
2023/07/04 05:29:42;;;;;;;10.35;3.70;;;15.20;90.10;;;;;;5087258;28;20490;-74
2023/07/04 05:32:09;;;;;;;7.30;3.30;;;15.20;90.00;;;;;;5083987;28;20921;-74
2023/07/04 05:34:36;;;;;;;10.55;3.53;;;15.20;89.70;;;;;;5087264;28;20425;-75
2023/07/04 05:37:03;;;;;;;9.57;3.78;;;15.30;89.50;;;;;;5086717;28;20430;-74
2023/07/04 05:39:30;;;;;;;8.27;3.40;;;15.30;89.30;;;;;;5087342;28;20994;-73
2023/07/04 05:41:57;;;;;;;7.68;3.25;;;15.30;89.30;;;;;;5084403;28;20430;-74
2023/07/04 05:44:25;;;;;;;7.63;3.00;;;15.40;89.10;;;;;;5082333;28;20437;-74
2023/07/04 05:46:54;;;;;;;9.60;3.60;;;15.40;88.70;;;;;;5086693;28;20577;-74
2023/07/04 05:49:20;;;;;;;8.40;3.00;;;15.40;88.20;;;;;;5083736;28;20422;-74
2023/07/04 05:51:47;;;;;;;11.85;3.50;;;15.50;88.00;;;;;;5081732;28;20439;-73
2023/07/04 05:54:14;;;;;;;9.68;3.30;;;15.50;88.20;;;;;;5085373;28;20432;-73
2023/07/04 05:56:41;;;;;;;6.22;3.20;;;15.60;88.20;;;;;;5088981;28;20418;-73
2023/07/04 05:59:09;;;;;;;5.70;3.10;;;15.60;87.50;;;;;;5089706;28;20418;-73
2023/07/04 06:01:40;;;;;;;8.32;3.00;;;15.70;87.20;;;;;;5083181;28;20750;-72
2023/07/04 06:04:08;;;;;;;7.40;3.60;;;15.70;86.50;;;;;;5084567;28;20429;-72
2023/07/04 06:06:37;;;;;;;8.27;3.50;;;15.80;86.30;;;;;;5087805;28;20782;-72
2023/07/04 06:09:07;;;;;;;8.03;3.20;;;15.80;86.40;;;;;;5082486;28;20447;-72
2023/07/04 06:11:36;;;;;;;8.85;4.10;;;15.80;86.60;;;;;;5087666;28;20900;-72
2023/07/04 06:14:03;;;;;;;8.17;3.50;;;15.80;86.90;;;;;;5076565;28;20446;-72
2023/07/04 06:16:30;;;;;;;9.52;3.80;;;15.90;86.20;;;;;;5085721;28;20484;-74
2023/07/04 06:18:59;;;;;;;9.52;3.22;;;15.90;85.90;;;;;;5088300;28;20426;-73
2023/07/04 06:21:26;;;;;;;7.63;3.42;;;16.00;85.50;;;;;;5079283;28;20484;-72
2023/07/04 06:23:55;;;;;;;10.07;3.75;;;16.00;85.30;;;;;;5085693;28;20429;-72
2023/07/04 06:26:22;;;;;;;7.20;3.70;;;16.00;85.50;;;;;;5082441;28;20446;-71
2023/07/04 06:28:50;;;;;;;8.80;3.75;;;16.00;85.20;;;;;;5078846;28;20816;-72
2023/07/04 06:31:18;;;;;;;9.83;5.20;;;16.10;84.50;;;;;;5086004;28;20429;-71
2023/07/04 06:33:45;;;;;;;10.35;3.40;;;16.10;84.30;;;;;;5089295;28;21065;-71
2023/07/04 06:36:15;;;;;;;8.05;3.30;;;16.20;84.20;;;;;;5079225;28;20470;-72
2023/07/04 06:38:43;;;;;;;8.40;3.80;;;16.20;83.30;;;;;;5087056;28;20430;-70
2023/07/04 06:41:11;;;;;;;11.73;3.60;;;16.30;83.50;;;;;;5088895;28;20422;-71
2023/07/04 06:43:40;;;;;;;9.60;3.40;;;16.30;82.90;;;;;;5090234;28;20425;-71
2023/07/04 06:46:07;;;;;;;8.90;3.60;;;16.40;82.60;;;;;;5087237;28;20418;-72
2023/07/04 06:48:34;;;;;;;7.87;3.73;;;16.40;82.60;;;;;;5080540;28;20800;-72
2023/07/04 06:51:02;;;;;;;7.63;3.30;;;16.50;82.10;;;;;;5086015;28;20425;-71
2023/07/04 06:53:31;;;;;;;9.07;3.43;;;16.60;80.40;;;;;;5088265;28;20417;-71
2023/07/04 06:56:05;;;;;;;8.57;3.17;;;16.60;79.20;;;;;;5080703;28;20552;-71
2023/07/04 06:58:32;;;;;;;6.97;3.35;;;16.60;79.60;;;;;;5087686;28;20532;-71
2023/07/04 07:01:02;;;;;;;8.85;3.63;;;16.60;79.00;;;;;;5084349;28;20431;-71
2023/07/04 07:03:28;;;;;;;9.17;3.23;;;16.60;79.00;;;;;;5083757;28;20457;-72
2023/07/04 07:05:55;;;;;;;6.40;3.10;;;16.70;79.00;;;;;;5084093;28;20927;-71
2023/07/04 07:08:22;;;;;;;9.30;3.15;;;16.80;77.90;;;;;;5087367;28;20512;-71
2023/07/04 07:10:54;;;;;;;7.72;3.33;;;16.90;77.10;;;;;;5084396;28;20467;-71
2023/07/04 07:13:21;;;;;;;6.20;2.80;;;17.00;76.40;;;;;;5089011;28;20402;-71
2023/07/04 07:15:48;;;;;;;7.65;3.70;;;17.10;76.40;;;;;;5088226;28;20421;-72
2023/07/04 07:18:15;;;;;;;8.75;4.00;;;17.20;76.00;;;;;;5089769;28;20528;-71
2023/07/04 07:20:42;;;;;;;6.72;3.40;;;17.20;76.10;;;;;;5089028;28;20410;-72
2023/07/04 07:23:09;;;;;;;7.32;3.03;;;17.40;75.70;;;;;;5089518;28;20781;-71
2023/07/04 07:25:36;;;;;;;8.10;3.22;;;17.50;76.00;;;;;;5079510;28;20463;-72
2023/07/04 07:28:05;;;;;;;7.95;3.20;;;17.60;74.30;;;;;;5089400;28;20426;-72
2023/07/04 07:30:31;;;;;;;7.95;3.63;;;17.70;73.80;;;;;;5089080;28;20445;-71
2023/07/04 07:32:58;;;;;;;8.45;3.00;;;17.80;73.90;;;;;;5089444;28;20846;-72
2023/07/04 07:35:25;;;;;;;7.13;3.50;;;17.90;73.20;;;;;;5089440;28;20422;-72
2023/07/04 07:37:52;;;;;;;8.40;3.40;;;18.00;72.00;;;;;;5079209;28;20904;-72
2023/07/04 07:40:18;;;;;;;6.90;3.25;;;18.00;71.60;;;;;;5078067;28;20426;-71
2023/07/04 07:42:45;;;;;;;9.02;3.60;;;18.00;71.60;;;;;;5089510;28;20432;-72
2023/07/04 07:45:13;;;;;;;8.82;3.28;;;18.00;71.90;;;;;;5089013;28;20417;-72
2023/07/04 07:47:40;;;;;;;8.82;3.00;;;18.10;70.50;;;;;;5089301;28;20444;-72
2023/07/04 07:50:07;;;;;;;7.82;3.85;;;18.20;70.30;;;;;;5082396;28;20439;-71
2023/07/04 07:52:34;;;;;;;8.52;3.30;;;18.20;70.80;;;;;;5086307;28;20418;-72
2023/07/04 07:55:01;;;;;;;7.15;3.13;;;18.30;70.30;;;;;;5079579;28;20426;-72
2023/07/04 07:57:28;;;;;;;8.60;3.77;;;18.50;68.10;;;;;;5079862;28;20430;-72
2023/07/04 07:59:55;;;;;;;9.90;3.20;;;18.50;68.40;;;;;;5068409;28;20874;-72
2023/07/04 08:02:23;;;;;;;4.90;3.10;;;18.60;68.10;;;;;;5068834;28;20414;-72
2023/07/04 08:04:50;;;;;;;8.25;3.20;;;18.80;67.70;;;;;;5068799;28;20914;-72
2023/07/04 08:07:16;;;;;;;5.97;3.22;;;18.80;66.30;;;;;;5069032;28;20423;-73
2023/07/04 08:09:43;;;;;;;8.43;3.10;;;18.90;65.00;;;;;;5076399;28;20433;-71
2023/07/04 08:12:10;;;;;;;6.63;3.00;;;19.00;64.70;;;;;;5081828;28;20427;-72
2023/07/04 08:14:38;;;;;;;6.53;3.00;;;18.90;65.60;;;;;;5086560;28;20413;-72
2023/07/04 08:17:05;;;;;;;6.60;2.85;;;19.00;65.50;;;;;;5088065;28;20433;-71
2023/07/04 08:19:33;;;;;;;7.35;2.97;;;19.20;65.60;;;;;;5086195;28;20522;-72
2023/07/04 08:22:00;;;;;;;6.07;3.20;;;19.40;64.20;;;;;;5081497;28;20730;-72
2023/07/04 08:24:26;;;;;;;6.07;3.30;;;19.60;62.30;;;;;;5087477;28;20440;-72
2023/07/04 08:26:55;;;;;;;6.88;2.70;;;19.70;61.90;;;;;;5081053;28;20433;-72
2023/07/04 08:29:21;;;;;;;6.82;2.85;;;19.60;61.90;;;;;;5088113;28;20899;-72
2023/07/04 08:31:48;;;;;;;5.60;3.00;;;19.50;62.40;;;;;;5088737;28;20429;-72
2023/07/04 08:34:15;;;;;;;6.03;2.50;;;19.40;62.50;;;;;;5087411;28;20429;-71
2023/07/04 08:36:44;;;;;;;7.57;2.80;;;19.40;63.20;;;;;;5080354;28;20493;-72
2023/07/04 08:39:11;;;;;;;7.45;3.00;;;19.50;60.70;;;;;;5086531;28;20425;-72
2023/07/04 08:41:45;;;;;;;7.43;2.60;;;19.60;59.20;;;;;;5083537;28;20931;-71
2023/07/04 08:44:16;;;;;;;5.43;2.70;;;19.70;59.80;;;;;;5078996;28;20429;-71
2023/07/04 08:46:45;;;;;;;3.70;2.38;;;19.80;58.00;;;;;;5088847;28;20460;-72
2023/07/04 08:49:25;;;;;;;3.97;2.22;;;19.80;56.70;;;;;;5088018;28;20429;-71
2023/07/04 08:51:59;;;;;;;4.72;2.50;;;19.80;57.60;;;;;;5090445;28;20437;-72
2023/07/04 08:54:27;;;;;;;5.75;2.50;;;19.90;57.10;;;;;;5091082;28;20466;-72
2023/07/04 08:56:58;;;;;;;6.25;2.35;;;20.00;56.50;;;;;;5084261;28;20483;-71
2023/07/04 08:59:37;;;;;;;5.65;2.70;;;20.00;55.00;;;;;;5082420;28;20430;-71
2023/07/04 09:02:28;;;;;;;6.10;3.30;;;20.20;54.50;;;;;;5076526;28;20423;-71
2023/07/04 09:05:03;;;;;;;4.60;2.38;;;20.40;55.10;;;;;;5083761;28;20524;-71
2023/07/04 09:07:37;;;;;;;5.57;3.05;;;20.80;53.10;;;;;;5081815;28;20728;-71
2023/07/04 09:10:16;;;;;;;6.47;2.60;;;21.10;51.30;;;;;;5088882;28;20426;-71
2023/07/04 09:12:43;;;;;;;7.00;2.70;;;21.30;49.70;;;;;;5083270;28;20445;-72
2023/07/04 09:15:18;;;;;;;4.87;2.30;;;21.30;48.30;;;;;;5091939;28;20413;-71
2023/07/04 09:17:52;;;;;;;5.57;2.40;;;21.20;47.30;;;;;;5091963;28;20410;-71
2023/07/04 09:20:19;;;;;;;5.78;2.60;;;21.10;47.80;;;;;;5090341;28;20776;-71
2023/07/04 09:22:47;;;;;;;5.60;2.50;;;21.20;49.10;;;;;;5083119;28;20409;-71
2023/07/04 09:25:14;;;;;;;5.30;2.20;;;21.30;47.90;;;;;;5090497;28;20430;-71
2023/07/04 09:27:41;;;;;;;6.13;2.60;;;21.30;48.20;;;;;;5080288;28;20517;-71
2023/07/04 09:30:11;;;;;;;7.30;2.80;;;21.50;47.80;;;;;;5085027;28;20474;-71
2023/07/04 09:32:38;;;;;;;5.35;2.67;;;21.50;47.50;;;;;;5091693;28;20417;-71
2023/07/04 09:35:06;;;;;;;5.70;2.50;;;21.70;47.50;;;;;;5091354;28;20418;-71
2023/07/04 09:37:53;;;;;;;3.72;2.35;;;21.80;46.00;;;;;;5091399;28;20448;-70
2023/07/04 09:40:40;;;;;;;6.85;3.00;;;21.80;46.60;;;;;;5090111;28;20508;-70
2023/07/04 09:43:07;;;;;;;5.35;2.60;;;21.90;47.20;;;;;;5084534;28;20413;-71
2023/07/04 09:45:34;;;;;;;5.75;3.22;;;22.00;45.80;;;;;;5091576;28;20414;-72
2023/07/04 09:48:01;;;;;;;5.93;3.00;;;22.10;46.10;;;;;;5091642;28;20413;-70
2023/07/04 09:50:30;;;;;;;5.53;2.80;;;22.00;45.90;;;;;;5090637;28;20410;-70
2023/07/04 09:53:11;;;;;;;5.32;3.05;;;22.10;46.30;;;;;;5091166;28;20425;-71
2023/07/04 09:55:41;;;;;;;4.82;2.80;;;22.30;45.60;;;;;;5087811;28;20773;-71
2023/07/04 09:58:19;;;;;;;5.15;2.75;;;22.10;45.40;;;;;;5084947;28;20488;-71
2023/07/04 10:00:59;;;;;;;5.97;3.20;;;21.90;45.80;;;;;;5090877;28;20410;-71
2023/07/04 10:03:26;;;;;;;5.47;3.20;;;21.70;46.70;;;;;;5091812;28;21054;-71
2023/07/04 10:05:53;;;;;;;4.40;2.90;;;21.80;47.30;;;;;;5094424;28;20413;-71
2023/07/04 10:08:20;;;;;;;5.38;3.30;;;22.00;47.90;;;;;;5093479;28;20974;-71
2023/07/04 10:10:53;;;;;;;5.30;3.33;;;22.20;46.20;;;;;;5083785;28;20431;-70
2023/07/04 10:13:21;;;;;;;4.80;2.93;;;22.30;44.50;;;;;;5091722;28;20579;-70
2023/07/04 10:15:49;;;;;;;5.80;2.80;;;22.20;44.90;;;;;;5091291;28;20792;-70
2023/07/04 10:18:28;;;;;;;5.57;2.97;;;22.20;46.00;;;;;;5090959;28;20439;-70
2023/07/04 10:20:57;;;;;;;6.80;3.60;;;22.30;46.00;;;;;;5089170;28;20445;-70
2023/07/04 10:23:26;;;;;;;5.88;3.47;;;22.30;45.30;;;;;;5080977;28;20433;-70
2023/07/04 10:25:55;;;;;;;4.85;3.33;;;22.50;45.60;;;;;;5081551;28;20433;-71
2023/07/04 10:28:26;;;;;;;5.10;3.40;;;22.60;44.50;;;;;;5090749;28;20413;-70
2023/07/04 10:30:56;;;;;;;5.82;3.70;;;22.90;44.40;;;;;;5090354;28;20417;-71
2023/07/04 10:33:29;;;;;;;5.30;3.28;;;23.10;43.80;;;;;;5090639;28;20406;-70
2023/07/04 10:35:56;;;;;;;6.53;3.72;;;23.30;43.30;;;;;;5086248;28;20500;-71
2023/07/04 10:38:38;;;;;;;5.10;3.35;;;23.30;43.10;;;;;;5085835;28;20417;-70
2023/07/04 10:41:19;;;;;;;6.15;3.72;;;23.30;42.80;;;;;;5089158;28;20788;-71
2023/07/04 10:43:52;;;;;;;4.22;3.60;;;23.10;42.20;;;;;;5081691;28;20414;-70
2023/07/04 10:46:25;;;;;;;6.90;4.07;;;23.10;43.00;;;;;;5090360;28;20418;-70
2023/07/04 10:48:57;;;;;;;6.88;4.25;;;23.10;42.60;;;;;;5089906;28;20459;-71
2023/07/04 10:51:29;;;;;;;5.47;3.60;;;23.20;41.90;;;;;;5081591;28;20531;-70
2023/07/04 10:53:56;;;;;;;6.53;3.70;;;23.30;41.70;;;;;;5093587;22;20452;-72
2023/07/04 10:56:27;;;;;;;6.38;3.63;;;23.20;41.40;;;;;;5081466;28;20427;-70
2023/07/04 10:59:01;;;;;;;5.50;3.70;;;23.10;41.40;;;;;;5089600;28;20446;-72
2023/07/04 11:01:33;;;;;;;4.90;3.00;;;23.20;42.40;;;;;;5080792;28;20430;-70
2023/07/04 11:04:05;;;;;;;5.77;3.40;;;23.30;41.40;;;;;;5082908;28;20410;-73
2023/07/04 11:06:37;;;;;;;5.57;4.10;;;23.20;42.10;;;;;;5090733;28;20416;-72
2023/07/04 11:09:07;;;;;;;6.43;4.18;;;23.30;42.30;;;;;;5089457;28;20835;-72
2023/07/04 11:11:35;;;;;;;4.95;3.55;;;23.50;42.80;;;;;;5089520;28;20440;-72
2023/07/04 11:14:06;;;;;;;5.32;3.90;;;23.80;41.70;;;;;;5089996;28;20903;-71
2023/07/04 11:16:34;;;;;;;6.43;3.53;;;23.90;39.60;;;;;;5090381;28;20471;-71
2023/07/04 11:19:05;;;;;;;6.38;3.70;;;23.70;39.70;;;;;;5090000;28;20480;-71
2023/07/04 11:21:33;;;;;;;4.28;3.78;;;23.70;40.30;;;;;;5090369;28;20409;-72
2023/07/04 11:24:16;;;;;;;7.10;3.90;;;24.00;39.90;;;;;;5088770;28;20413;-71
2023/07/04 11:26:51;;;;;;;6.53;4.05;;;24.30;39.00;;;;;;5088497;28;20499;-71
2023/07/04 11:29:20;;;;;;;5.18;3.88;;;24.40;39.20;;;;;;5092553;28;20431;-72
2023/07/04 11:32:11;;;;;;;5.03;3.80;;;24.70;39.00;;;;;;5083643;28;20775;-72
2023/07/04 11:34:47;;;;;;;4.90;3.70;;;24.70;38.10;;;;;;5089396;28;20505;-72
2023/07/04 11:37:26;;;;;;;6.00;3.90;;;24.60;38.00;;;;;;5093684;28;20418;-72
2023/07/04 11:39:57;;;;;;;5.10;3.58;;;24.40;38.20;;;;;;5088801;28;20928;-72
2023/07/04 11:42:33;;;;;;;4.97;3.50;;;24.60;38.10;;;;;;5088198;28;20414;-71
2023/07/04 11:45:05;;;;;;;5.57;4.30;;;24.80;37.00;;;;;;5088567;28;20520;-72
2023/07/04 11:47:37;;;;;;;4.80;4.05;;;24.60;37.10;;;;;;5081572;28;20574;-72
2023/07/04 11:50:11;;;;;;;5.82;4.20;;;24.70;37.30;;;;;;5093079;28;20463;-71
2023/07/04 11:52:41;;;;;;;5.30;4.00;;;25.10;36.70;;;;;;5092375;28;20429;-71
2023/07/04 11:55:10;;;;;;;4.43;3.95;;;25.50;36.00;;;;;;5082387;28;20906;-71
2023/07/04 11:58:01;;;;;;;4.90;3.70;;;25.70;35.00;;;;;;5078768;28;20484;-72
2023/07/04 12:01:03;;;;;;;4.90;4.10;;;25.90;34.60;;;;;;5089102;28;20406;-72
2023/07/04 12:04:05;;;;;;;5.38;4.22;;;25.60;34.60;;;;;;5090956;28;20414;-71
2023/07/04 12:06:49;;;;;;;5.03;4.40;;;25.60;34.60;;;;;;5080203;28;20434;-72
2023/07/04 12:09:27;;;;;;;5.65;3.80;;;25.70;35.10;;;;;;5093854;28;20426;-71
2023/07/04 12:11:55;;;;;;;4.95;4.30;;;26.00;34.50;;;;;;5087941;28;20545;-72
2023/07/04 12:14:24;;;;;;;5.75;4.30;;;26.30;33.90;;;;;;5097944;28;20888;-71
2023/07/04 12:16:51;;;;;;;5.43;4.40;;;26.60;34.10;;;;;;5093961;28;20402;-72
2023/07/04 12:19:19;;;;;;;4.70;4.00;;;26.80;32.90;;;;;;5091799;28;20792;-72
2023/07/04 12:21:48;;;;;;;4.75;4.25;;;26.90;32.10;;;;;;5089551;28;20413;-71
2023/07/04 12:24:19;;;;;;;4.20;3.80;;;26.70;31.80;;;;;;5091004;28;20452;-71
2023/07/04 12:26:53;;;;;;;6.30;4.70;;;26.80;32.30;;;;;;5091413;28;20436;-73
2023/07/04 12:29:20;;;;;;;4.80;4.30;;;26.80;31.00;;;;;;5093206;28;20517;-71
2023/07/04 12:31:48;;;;;;;5.40;4.50;;;26.60;32.10;;;;;;5093682;28;20424;-71
2023/07/04 12:34:14;;;;;;;5.15;4.57;;;26.80;32.40;;;;;;5091956;28;20915;-71
2023/07/04 12:36:44;;;;;;;4.85;4.45;;;27.00;31.80;;;;;;5090668;28;20426;-72
2023/07/04 12:39:15;;;;;;;6.30;4.20;;;27.10;32.20;;;;;;5086016;28;20409;-72
2023/07/04 12:41:42;;;;;;;5.10;4.40;;;27.30;32.60;;;;;;5083031;28;20438;-71
2023/07/04 12:44:13;;;;;;;4.82;4.43;;;27.60;31.70;;;;;;5092797;28;20927;-71
2023/07/04 12:46:43;;;;;;;4.90;4.40;;;27.70;30.90;;;;;;5092767;28;20410;-71
2023/07/04 12:49:12;;;;;;;4.63;4.22;;;27.80;31.50;;;;;;5089618;28;20908;-71
2023/07/04 12:51:42;;;;;;;5.90;5.32;;;27.90;29.70;;;;;;5084197;28;20421;-71
2023/07/04 12:54:13;;;;;;;5.20;4.70;;;27.80;29.50;;;;;;5094874;28;20429;-71
2023/07/04 12:56:44;;;;;;;5.00;4.60;;;27.50;30.10;;;;;;5085518;28;20973;-71